sensor_id;sensor_type;location;lat;lon;timestamp;temperature;humidity
80132;SHT30;69442;51.442;10.564;2023-12-28T00:00:23;6.35;69.77
80132;SHT30;69442;51.442;10.564;2023-12-28T00:02:49;6.40;70.53
80132;SHT30;69442;51.442;10.564;2023-12-28T00:05:14;6.35;69.99
80132;SHT30;69442;51.442;10.564;2023-12-28T00:07:40;6.35;69.12
80132;SHT30;69442;51.442;10.564;2023-12-28T00:10:05;6.39;69.87
80132;SHT30;69442;51.442;10.564;2023-12-28T00:12:31;6.39;70.42
80132;SHT30;69442;51.442;10.564;2023-12-28T00:14:56;6.40;68.67
80132;SHT30;69442;51.442;10.564;2023-12-28T00:17:21;6.42;69.54
80132;SHT30;69442;51.442;10.564;2023-12-28T00:19:47;6.39;68.97
80132;SHT30;69442;51.442;10.564;2023-12-28T00:22:13;6.40;71.78
80132;SHT30;69442;51.442;10.564;2023-12-28T00:24:38;6.39;68.80
80132;SHT30;69442;51.442;10.564;2023-12-28T00:27:03;6.39;69.09
80132;SHT30;69442;51.442;10.564;2023-12-28T00:29:29;6.40;67.93
80132;SHT30;69442;51.442;10.564;2023-12-28T00:31:55;6.40;68.36
80132;SHT30;69442;51.442;10.564;2023-12-28T00:34:20;6.45;67.68
80132;SHT30;69442;51.442;10.564;2023-12-28T00:36:46;6.46;70.42
80132;SHT30;69442;51.442;10.564;2023-12-28T00:39:11;6.43;67.75
80132;SHT30;69442;51.442;10.564;2023-12-28T00:41:36;6.46;69.50
80132;SHT30;69442;51.442;10.564;2023-12-28T00:44:02;6.46;70.37
80132;SHT30;69442;51.442;10.564;2023-12-28T00:46:27;6.45;68.61
80132;SHT30;69442;51.442;10.564;2023-12-28T00:48:53;6.43;68.01
80132;SHT30;69442;51.442;10.564;2023-12-28T00:51:20;6.47;68.82
80132;SHT30;69442;51.442;10.564;2023-12-28T00:53:45;6.47;67.96
80132;SHT30;69442;51.442;10.564;2023-12-28T00:56:10;6.46;67.93
80132;SHT30;69442;51.442;10.564;2023-12-28T00:58:41;6.49;67.63
80132;SHT30;69442;51.442;10.564;2023-12-28T01:01:09;6.47;68.73
80132;SHT30;69442;51.442;10.564;2023-12-28T01:03:34;6.52;70.62
80132;SHT30;69442;51.442;10.564;2023-12-28T01:05:59;6.49;69.22
80132;SHT30;69442;51.442;10.564;2023-12-28T01:08:25;6.50;68.53
80132;SHT30;69442;51.442;10.564;2023-12-28T01:10:50;6.53;69.86
80132;SHT30;69442;51.442;10.564;2023-12-28T01:13:15;6.54;71.13
80132;SHT30;69442;51.442;10.564;2023-12-28T01:15:41;6.54;69.32
80132;SHT30;69442;51.442;10.564;2023-12-28T01:18:06;6.52;68.02
80132;SHT30;69442;51.442;10.564;2023-12-28T01:20:32;6.54;68.42
80132;SHT30;69442;51.442;10.564;2023-12-28T01:22:57;6.57;68.64
80132;SHT30;69442;51.442;10.564;2023-12-28T01:25:23;6.56;67.57
80132;SHT30;69442;51.442;10.564;2023-12-28T01:27:48;6.58;71.24
80132;SHT30;69442;51.442;10.564;2023-12-28T01:30:13;6.62;70.33
80132;SHT30;69442;51.442;10.564;2023-12-28T01:32:39;6.60;71.17
80132;SHT30;69442;51.442;10.564;2023-12-28T01:35:04;6.62;72.05
80132;SHT30;69442;51.442;10.564;2023-12-28T01:37:30;6.62;71.40
80132;SHT30;69442;51.442;10.564;2023-12-28T01:39:58;6.63;70.77
80132;SHT30;69442;51.442;10.564;2023-12-28T01:42:24;6.66;69.60
80132;SHT30;69442;51.442;10.564;2023-12-28T01:44:49;6.69;70.62
80132;SHT30;69442;51.442;10.564;2023-12-28T01:47:14;6.67;71.45
80132;SHT30;69442;51.442;10.564;2023-12-28T01:49:40;6.70;71.26
80132;SHT30;69442;51.442;10.564;2023-12-28T01:52:06;6.69;71.34
80132;SHT30;69442;51.442;10.564;2023-12-28T01:54:32;6.76;73.71
80132;SHT30;69442;51.442;10.564;2023-12-28T01:56:59;6.74;72.83
80132;SHT30;69442;51.442;10.564;2023-12-28T01:59:25;6.76;71.01
80132;SHT30;69442;51.442;10.564;2023-12-28T02:01:50;6.80;72.08
80132;SHT30;69442;51.442;10.564;2023-12-28T02:04:16;6.80;73.96
80132;SHT30;69442;51.442;10.564;2023-12-28T02:06:41;6.83;71.31
80132;SHT30;69442;51.442;10.564;2023-12-28T02:09:07;6.83;73.39
80132;SHT30;69442;51.442;10.564;2023-12-28T02:11:32;6.87;71.69
80132;SHT30;69442;51.442;10.564;2023-12-28T02:13:58;6.88;71.91
80132;SHT30;69442;51.442;10.564;2023-12-28T02:16:33;6.91;72.39
80132;SHT30;69442;51.442;10.564;2023-12-28T02:19:14;6.91;75.34
80132;SHT30;69442;51.442;10.564;2023-12-28T02:21:43;6.94;74.88
80132;SHT30;69442;51.442;10.564;2023-12-28T02:24:09;6.92;73.82
80132;SHT30;69442;51.442;10.564;2023-12-28T02:26:34;6.94;75.21
80132;SHT30;69442;51.442;10.564;2023-12-28T02:28:59;6.92;73.82
80132;SHT30;69442;51.442;10.564;2023-12-28T02:31:28;6.98;74.29
80132;SHT30;69442;51.442;10.564;2023-12-28T02:34:00;6.97;75.29
80132;SHT30;69442;51.442;10.564;2023-12-28T02:36:27;6.97;75.03
80132;SHT30;69442;51.442;10.564;2023-12-28T02:38:54;6.97;75.62
80132;SHT30;69442;51.442;10.564;2023-12-28T02:41:22;6.98;77.49
80132;SHT30;69442;51.442;10.564;2023-12-28T02:43:48;6.95;75.97
80132;SHT30;69442;51.442;10.564;2023-12-28T02:46:13;6.97;75.62
80132;SHT30;69442;51.442;10.564;2023-12-28T02:48:39;6.95;75.96
80132;SHT30;69442;51.442;10.564;2023-12-28T02:51:04;6.97;76.26
80132;SHT30;69442;51.442;10.564;2023-12-28T02:53:29;6.95;76.56
80132;SHT30;69442;51.442;10.564;2023-12-28T02:55:55;6.98;77.13
80132;SHT30;69442;51.442;10.564;2023-12-28T02:58:20;6.97;76.93
80132;SHT30;69442;51.442;10.564;2023-12-28T03:00:46;6.99;76.91
80132;SHT30;69442;51.442;10.564;2023-12-28T03:03:11;6.98;76.28
80132;SHT30;69442;51.442;10.564;2023-12-28T03:05:36;6.98;76.89
80132;SHT30;69442;51.442;10.564;2023-12-28T03:08:02;7.01;77.07
80132;SHT30;69442;51.442;10.564;2023-12-28T03:10:27;6.99;76.44
80132;SHT30;69442;51.442;10.564;2023-12-28T03:12:53;7.01;77.76
80132;SHT30;69442;51.442;10.564;2023-12-28T03:15:18;6.97;76.68
80132;SHT30;69442;51.442;10.564;2023-12-28T03:17:44;6.99;77.72
80132;SHT30;69442;51.442;10.564;2023-12-28T03:20:09;6.97;77.28
80132;SHT30;69442;51.442;10.564;2023-12-28T03:22:35;6.98;77.71
80132;SHT30;69442;51.442;10.564;2023-12-28T03:25:00;6.98;77.09
80132;SHT30;69442;51.442;10.564;2023-12-28T03:27:26;6.98;76.65
80132;SHT30;69442;51.442;10.564;2023-12-28T03:29:51;6.97;75.38
80132;SHT30;69442;51.442;10.564;2023-12-28T03:32:17;6.99;76.16
80132;SHT30;69442;51.442;10.564;2023-12-28T03:34:42;7.01;76.25
80132;SHT30;69442;51.442;10.564;2023-12-28T03:37:07;7.02;76.34
80132;SHT30;69442;51.442;10.564;2023-12-28T03:39:34;7.04;77.22
80132;SHT30;69442;51.442;10.564;2023-12-28T03:42:00;7.04;76.57
80132;SHT30;69442;51.442;10.564;2023-12-28T03:44:25;7.05;77.44
80132;SHT30;69442;51.442;10.564;2023-12-28T03:46:51;7.04;76.07
80132;SHT30;69442;51.442;10.564;2023-12-28T03:49:20;7.04;76.95
80132;SHT30;69442;51.442;10.564;2023-12-28T03:51:46;7.04;77.23
80132;SHT30;69442;51.442;10.564;2023-12-28T03:54:12;7.11;78.92
80132;SHT30;69442;51.442;10.564;2023-12-28T03:56:37;7.08;77.66
80132;SHT30;69442;51.442;10.564;2023-12-28T03:59:05;7.09;77.47
80132;SHT30;69442;51.442;10.564;2023-12-28T04:01:30;7.11;77.54
80132;SHT30;69442;51.442;10.564;2023-12-28T04:03:56;7.12;76.42
80132;SHT30;69442;51.442;10.564;2023-12-28T04:06:21;7.15;78.42
80132;SHT30;69442;51.442;10.564;2023-12-28T04:08:46;7.11;77.35
80132;SHT30;69442;51.442;10.564;2023-12-28T04:11:12;7.14;76.56
80132;SHT30;69442;51.442;10.564;2023-12-28T04:13:37;7.12;77.30
80132;SHT30;69442;51.442;10.564;2023-12-28T04:16:04;7.12;76.69
80132;SHT30;69442;51.442;10.564;2023-12-28T04:18:29;7.14;77.70
80132;SHT30;69442;51.442;10.564;2023-12-28T04:20:55;7.14;78.00
80132;SHT30;69442;51.442;10.564;2023-12-28T04:23:20;7.12;76.61
80132;SHT30;69442;51.442;10.564;2023-12-28T04:25:46;7.14;77.28
80132;SHT30;69442;51.442;10.564;2023-12-28T04:28:11;7.14;76.67
80132;SHT30;69442;51.442;10.564;2023-12-28T04:30:37;7.12;76.83
80132;SHT30;69442;51.442;10.564;2023-12-28T04:33:02;7.11;77.14
80132;SHT30;69442;51.442;10.564;2023-12-28T04:35:28;7.15;77.18
80132;SHT30;69442;51.442;10.564;2023-12-28T04:37:54;7.14;77.14
80132;SHT30;69442;51.442;10.564;2023-12-28T04:40:19;7.14;77.95
80132;SHT30;69442;51.442;10.564;2023-12-28T04:42:44;7.11;77.42
80132;SHT30;69442;51.442;10.564;2023-12-28T04:45:10;7.12;80.11
80132;SHT30;69442;51.442;10.564;2023-12-28T04:47:36;7.12;78.91
80132;SHT30;69442;51.442;10.564;2023-12-28T04:50:02;7.11;77.11
80132;SHT30;69442;51.442;10.564;2023-12-28T04:52:28;7.11;77.45
80132;SHT30;69442;51.442;10.564;2023-12-28T04:54:53;7.12;78.95
80132;SHT30;69442;51.442;10.564;2023-12-28T04:57:19;7.11;79.01
80132;SHT30;69442;51.442;10.564;2023-12-28T04:59:44;7.14;80.53
80132;SHT30;69442;51.442;10.564;2023-12-28T05:02:10;7.08;78.45
80132;SHT30;69442;51.442;10.564;2023-12-28T05:04:38;7.11;78.20
80132;SHT30;69442;51.442;10.564;2023-12-28T05:07:04;7.12;79.05
80132;SHT30;69442;51.442;10.564;2023-12-28T05:09:29;7.08;79.24
80132;SHT30;69442;51.442;10.564;2023-12-28T05:11:54;7.09;78.81
80132;SHT30;69442;51.442;10.564;2023-12-28T05:14:20;7.11;79.03
80132;SHT30;69442;51.442;10.564;2023-12-28T05:16:45;7.11;79.57
80132;SHT30;69442;51.442;10.564;2023-12-28T05:19:10;7.12;79.79
80132;SHT30;69442;51.442;10.564;2023-12-28T05:21:36;7.09;80.24
80132;SHT30;69442;51.442;10.564;2023-12-28T05:24:01;7.08;79.40
80132;SHT30;69442;51.442;10.564;2023-12-28T05:26:27;7.12;80.25
80132;SHT30;69442;51.442;10.564;2023-12-28T05:28:52;7.12;80.09
80132;SHT30;69442;51.442;10.564;2023-12-28T05:31:18;7.12;80.15
80132;SHT30;69442;51.442;10.564;2023-12-28T05:33:43;7.11;80.59
80132;SHT30;69442;51.442;10.564;2023-12-28T05:36:08;7.09;80.83
80132;SHT30;69442;51.442;10.564;2023-12-28T05:38:34;7.09;82.01
80132;SHT30;69442;51.442;10.564;2023-12-28T05:40:59;7.08;81.53
80132;SHT30;69442;51.442;10.564;2023-12-28T05:43:25;7.09;81.06
80132;SHT30;69442;51.442;10.564;2023-12-28T05:45:51;7.09;81.61
80132;SHT30;69442;51.442;10.564;2023-12-28T05:48:16;7.08;81.35
80132;SHT30;69442;51.442;10.564;2023-12-28T05:50:42;7.12;81.77
80132;SHT30;69442;51.442;10.564;2023-12-28T05:53:07;7.08;81.52
80132;SHT30;69442;51.442;10.564;2023-12-28T05:55:36;7.12;81.72
80132;SHT30;69442;51.442;10.564;2023-12-28T05:58:02;7.08;81.73
80132;SHT30;69442;51.442;10.564;2023-12-28T06:00:27;7.11;82.10
80132;SHT30;69442;51.442;10.564;2023-12-28T06:02:53;7.09;81.97
80132;SHT30;69442;51.442;10.564;2023-12-28T06:05:18;7.08;81.79
80132;SHT30;69442;51.442;10.564;2023-12-28T06:07:43;7.11;82.17
80132;SHT30;69442;51.442;10.564;2023-12-28T06:10:09;7.08;81.89
80132;SHT30;69442;51.442;10.564;2023-12-28T06:12:34;7.07;81.78
80132;SHT30;69442;51.442;10.564;2023-12-28T06:15:00;7.11;81.99
80132;SHT30;69442;51.442;10.564;2023-12-28T06:17:26;7.09;81.88
80132;SHT30;69442;51.442;10.564;2023-12-28T06:19:52;7.09;81.66
80132;SHT30;69442;51.442;10.564;2023-12-28T06:22:17;7.08;82.12
80132;SHT30;69442;51.442;10.564;2023-12-28T06:24:42;7.11;81.66
80132;SHT30;69442;51.442;10.564;2023-12-28T06:27:08;7.09;81.50
80132;SHT30;69442;51.442;10.564;2023-12-28T06:29:33;7.05;81.22
80132;SHT30;69442;51.442;10.564;2023-12-28T06:31:58;7.05;81.34
80132;SHT30;69442;51.442;10.564;2023-12-28T06:34:24;7.07;81.38
80132;SHT30;69442;51.442;10.564;2023-12-28T06:36:49;7.04;81.09
80132;SHT30;69442;51.442;10.564;2023-12-28T06:39:15;7.08;81.60
80132;SHT30;69442;51.442;10.564;2023-12-28T06:41:40;7.07;81.32
80132;SHT30;69442;51.442;10.564;2023-12-28T06:44:05;7.05;81.74
80132;SHT30;69442;51.442;10.564;2023-12-28T06:46:31;7.02;81.43
80132;SHT30;69442;51.442;10.564;2023-12-28T06:48:56;7.01;81.71
80132;SHT30;69442;51.442;10.564;2023-12-28T06:51:24;7.04;81.77
80132;SHT30;69442;51.442;10.564;2023-12-28T06:53:49;7.02;81.96
80132;SHT30;69442;51.442;10.564;2023-12-28T06:56:15;7.02;81.45
80132;SHT30;69442;51.442;10.564;2023-12-28T06:58:41;7.01;81.79
80132;SHT30;69442;51.442;10.564;2023-12-28T07:01:07;7.01;81.83
80132;SHT30;69442;51.442;10.564;2023-12-28T07:03:32;6.97;81.41
80132;SHT30;69442;51.442;10.564;2023-12-28T07:05:59;6.99;81.19
80132;SHT30;69442;51.442;10.564;2023-12-28T07:08:24;7.01;81.57
80132;SHT30;69442;51.442;10.564;2023-12-28T07:10:50;6.99;81.72
80132;SHT30;69442;51.442;10.564;2023-12-28T07:13:15;6.99;81.35
80132;SHT30;69442;51.442;10.564;2023-12-28T07:15:41;6.98;81.58
80132;SHT30;69442;51.442;10.564;2023-12-28T07:18:06;6.97;81.47
80132;SHT30;69442;51.442;10.564;2023-12-28T07:20:31;6.99;81.57
80132;SHT30;69442;51.442;10.564;2023-12-28T07:22:57;6.98;81.53
80132;SHT30;69442;51.442;10.564;2023-12-28T07:25:22;6.94;81.12
80132;SHT30;69442;51.442;10.564;2023-12-28T07:27:48;6.97;81.72
80132;SHT30;69442;51.442;10.564;2023-12-28T07:30:13;6.95;81.20
80132;SHT30;69442;51.442;10.564;2023-12-28T07:32:39;6.95;81.39
80132;SHT30;69442;51.442;10.564;2023-12-28T07:35:04;6.92;81.21
80132;SHT30;69442;51.442;10.564;2023-12-28T07:37:30;6.94;81.48
80132;SHT30;69442;51.442;10.564;2023-12-28T07:39:55;6.97;83.47
80132;SHT30;69442;51.442;10.564;2023-12-28T07:42:20;6.95;83.52
80132;SHT30;69442;51.442;10.564;2023-12-28T07:44:46;6.95;83.75
80132;SHT30;69442;51.442;10.564;2023-12-28T07:47:11;6.94;82.03
80132;SHT30;69442;51.442;10.564;2023-12-28T07:49:37;6.97;81.84
80132;SHT30;69442;51.442;10.564;2023-12-28T07:52:03;6.98;81.66
80132;SHT30;69442;51.442;10.564;2023-12-28T07:54:28;6.98;81.41
80132;SHT30;69442;51.442;10.564;2023-12-28T07:56:54;6.98;82.09
80132;SHT30;69442;51.442;10.564;2023-12-28T07:59:19;6.95;81.64
80132;SHT30;69442;51.442;10.564;2023-12-28T08:01:44;6.92;81.70
80132;SHT30;69442;51.442;10.564;2023-12-28T08:04:11;6.90;81.57
80132;SHT30;69442;51.442;10.564;2023-12-28T08:06:36;6.91;81.98
80132;SHT30;69442;51.442;10.564;2023-12-28T08:09:01;6.94;81.98
80132;SHT30;69442;51.442;10.564;2023-12-28T08:11:27;7.02;82.53
80132;SHT30;69442;51.442;10.564;2023-12-28T08:13:53;7.01;82.60
80132;SHT30;69442;51.442;10.564;2023-12-28T08:16:19;6.98;81.61
80132;SHT30;69442;51.442;10.564;2023-12-28T08:18:44;6.98;81.77
80132;SHT30;69442;51.442;10.564;2023-12-28T08:21:09;7.01;81.64
80132;SHT30;69442;51.442;10.564;2023-12-28T08:23:35;7.07;82.15
80132;SHT30;69442;51.442;10.564;2023-12-28T08:26:00;7.02;81.80
80132;SHT30;69442;51.442;10.564;2023-12-28T08:28:25;7.02;82.14
80132;SHT30;69442;51.442;10.564;2023-12-28T08:30:51;7.02;81.90
80132;SHT30;69442;51.442;10.564;2023-12-28T08:33:16;7.02;82.13
80132;SHT30;69442;51.442;10.564;2023-12-28T08:35:42;7.04;82.20
80132;SHT30;69442;51.442;10.564;2023-12-28T08:38:07;7.08;82.42
80132;SHT30;69442;51.442;10.564;2023-12-28T08:40:33;7.07;82.03
80132;SHT30;69442;51.442;10.564;2023-12-28T08:42:58;7.07;82.37
80132;SHT30;69442;51.442;10.564;2023-12-28T08:45:24;7.08;82.00
80132;SHT30;69442;51.442;10.564;2023-12-28T08:47:49;7.05;81.94
80132;SHT30;69442;51.442;10.564;2023-12-28T08:50:14;7.08;82.49
80132;SHT30;69442;51.442;10.564;2023-12-28T08:52:40;7.11;81.99
80132;SHT30;69442;51.442;10.564;2023-12-28T08:55:05;7.09;82.46
80132;SHT30;69442;51.442;10.564;2023-12-28T08:57:31;7.12;82.08
80132;SHT30;69442;51.442;10.564;2023-12-28T08:59:57;7.12;82.19
80132;SHT30;69442;51.442;10.564;2023-12-28T09:02:22;7.12;82.54
80132;SHT30;69442;51.442;10.564;2023-12-28T09:04:48;7.14;82.81
80132;SHT30;69442;51.442;10.564;2023-12-28T09:07:14;7.14;81.75
80132;SHT30;69442;51.442;10.564;2023-12-28T09:09:39;7.12;81.66
80132;SHT30;69442;51.442;10.564;2023-12-28T09:12:05;7.14;81.75
80132;SHT30;69442;51.442;10.564;2023-12-28T09:14:30;7.15;81.86
80132;SHT30;69442;51.442;10.564;2023-12-28T09:16:56;7.16;81.74
80132;SHT30;69442;51.442;10.564;2023-12-28T09:19:22;7.22;82.70
80132;SHT30;69442;51.442;10.564;2023-12-28T09:21:48;7.20;82.42
80132;SHT30;69442;51.442;10.564;2023-12-28T09:24:13;7.20;82.34
80132;SHT30;69442;51.442;10.564;2023-12-28T09:26:41;7.22;82.16
80132;SHT30;69442;51.442;10.564;2023-12-28T09:29:06;7.23;82.44
80132;SHT30;69442;51.442;10.564;2023-12-28T09:31:31;7.25;82.46
80132;SHT30;69442;51.442;10.564;2023-12-28T09:33:57;7.25;81.94
80132;SHT30;69442;51.442;10.564;2023-12-28T09:36:22;7.29;82.43
80132;SHT30;69442;51.442;10.564;2023-12-28T09:38:47;7.27;81.82
80132;SHT30;69442;51.442;10.564;2023-12-28T09:41:14;7.30;81.86
80132;SHT30;69442;51.442;10.564;2023-12-28T09:43:53;7.33;82.07
80132;SHT30;69442;51.442;10.564;2023-12-28T09:46:18;7.35;81.87
80132;SHT30;69442;51.442;10.564;2023-12-28T09:48:44;7.33;81.88
80132;SHT30;69442;51.442;10.564;2023-12-28T09:51:10;7.40;82.46
80132;SHT30;69442;51.442;10.564;2023-12-28T09:53:36;7.40;81.75
80132;SHT30;69442;51.442;10.564;2023-12-28T09:56:02;7.42;81.47
80132;SHT30;69442;51.442;10.564;2023-12-28T09:58:28;7.43;81.82
80132;SHT30;69442;51.442;10.564;2023-12-28T10:00:54;7.46;81.58
80132;SHT30;69442;51.442;10.564;2023-12-28T10:03:21;7.49;81.86
80132;SHT30;69442;51.442;10.564;2023-12-28T10:05:47;7.46;81.65
80132;SHT30;69442;51.442;10.564;2023-12-28T10:08:13;7.53;81.61
80132;SHT30;69442;51.442;10.564;2023-12-28T10:10:43;7.56;82.05
80132;SHT30;69442;51.442;10.564;2023-12-28T10:13:10;7.57;82.43
80132;SHT30;69442;51.442;10.564;2023-12-28T10:15:36;7.61;82.57
80132;SHT30;69442;51.442;10.564;2023-12-28T10:18:03;7.66;82.46
80132;SHT30;69442;51.442;10.564;2023-12-28T10:20:31;7.67;81.53
80132;SHT30;69442;51.442;10.564;2023-12-28T10:22:58;7.70;81.14
80132;SHT30;69442;51.442;10.564;2023-12-28T10:25:23;7.75;81.69
80132;SHT30;69442;51.442;10.564;2023-12-28T10:27:52;7.77;81.21
80132;SHT30;69442;51.442;10.564;2023-12-28T10:30:19;7.80;80.58
80132;SHT30;69442;51.442;10.564;2023-12-28T10:32:45;7.84;81.75
80132;SHT30;69442;51.442;10.564;2023-12-28T10:35:10;7.84;80.87
80132;SHT30;69442;51.442;10.564;2023-12-28T10:37:39;7.89;81.11
80132;SHT30;69442;51.442;10.564;2023-12-28T10:40:05;7.94;82.07
80132;SHT30;69442;51.442;10.564;2023-12-28T10:42:33;7.97;81.37
80132;SHT30;69442;51.442;10.564;2023-12-28T10:45:03;7.99;80.53
80132;SHT30;69442;51.442;10.564;2023-12-28T10:47:32;8.03;80.11
80132;SHT30;69442;51.442;10.564;2023-12-28T10:50:02;8.06;80.14
80132;SHT30;69442;51.442;10.564;2023-12-28T10:52:28;8.09;80.08
80132;SHT30;69442;51.442;10.564;2023-12-28T10:57:29;8.16;79.66
80132;SHT30;69442;51.442;10.564;2023-12-28T11:02:28;8.25;79.78
80132;SHT30;69442;51.442;10.564;2023-12-28T11:04:53;8.29;79.36
80132;SHT30;69442;51.442;10.564;2023-12-28T11:07:20;8.30;81.87
80132;SHT30;69442;51.442;10.564;2023-12-28T11:09:47;8.32;80.68
80132;SHT30;69442;51.442;10.564;2023-12-28T11:12:13;8.37;79.60
80132;SHT30;69442;51.442;10.564;2023-12-28T11:14:43;8.37;80.56
80132;SHT30;69442;51.442;10.564;2023-12-28T11:17:11;8.42;81.03
80132;SHT30;69442;51.442;10.564;2023-12-28T11:19:36;8.42;80.32
80132;SHT30;69442;51.442;10.564;2023-12-28T11:22:03;8.43;81.03
80132;SHT30;69442;51.442;10.564;2023-12-28T11:24:30;8.49;80.45
80132;SHT30;69442;51.442;10.564;2023-12-28T11:26:56;8.49;79.38
80132;SHT30;69442;51.442;10.564;2023-12-28T11:29:22;8.50;80.59
80132;SHT30;69442;51.442;10.564;2023-12-28T11:31:58;8.56;78.48
80132;SHT30;69442;51.442;10.564;2023-12-28T11:34:31;8.53;78.77
80132;SHT30;69442;51.442;10.564;2023-12-28T11:37:01;8.57;78.94
80132;SHT30;69442;51.442;10.564;2023-12-28T11:39:35;8.57;79.15
80132;SHT30;69442;51.442;10.564;2023-12-28T11:42:02;8.59;78.35
80132;SHT30;69442;51.442;10.564;2023-12-28T11:44:28;8.65;79.44
80132;SHT30;69442;51.442;10.564;2023-12-28T11:46:54;8.65;78.97
80132;SHT30;69442;51.442;10.564;2023-12-28T11:49:27;8.64;79.35
80132;SHT30;69442;51.442;10.564;2023-12-28T11:51:58;8.67;78.72
80132;SHT30;69442;51.442;10.564;2023-12-28T11:54:25;8.65;78.22
80132;SHT30;69442;51.442;10.564;2023-12-28T11:56:51;8.70;78.36
80132;SHT30;69442;51.442;10.564;2023-12-28T11:59:18;8.71;77.91
80132;SHT30;69442;51.442;10.564;2023-12-28T12:01:43;8.72;77.79
80132;SHT30;69442;51.442;10.564;2023-12-28T12:04:08;8.74;78.56
80132;SHT30;69442;51.442;10.564;2023-12-28T12:06:34;8.72;78.00
80132;SHT30;69442;51.442;10.564;2023-12-28T12:08:59;8.77;79.50
80132;SHT30;69442;51.442;10.564;2023-12-28T12:11:25;8.77;77.72
80132;SHT30;69442;51.442;10.564;2023-12-28T12:13:53;8.78;78.49
80132;SHT30;69442;51.442;10.564;2023-12-28T12:16:20;8.77;77.41
80132;SHT30;69442;51.442;10.564;2023-12-28T12:18:45;8.75;77.12
80132;SHT30;69442;51.442;10.564;2023-12-28T12:21:12;8.77;77.65
80132;SHT30;69442;51.442;10.564;2023-12-28T12:23:37;8.75;76.98
80132;SHT30;69442;51.442;10.564;2023-12-28T12:26:05;8.77;78.23
80132;SHT30;69442;51.442;10.564;2023-12-28T12:28:31;8.77;77.88
80132;SHT30;69442;51.442;10.564;2023-12-28T12:30:58;8.79;78.08
80132;SHT30;69442;51.442;10.564;2023-12-28T12:33:27;8.79;77.36
80132;SHT30;69442;51.442;10.564;2023-12-28T12:35:52;8.78;77.09
80132;SHT30;69442;51.442;10.564;2023-12-28T12:38:18;8.82;80.78
80132;SHT30;69442;51.442;10.564;2023-12-28T12:40:43;8.81;78.90
80132;SHT30;69442;51.442;10.564;2023-12-28T12:43:09;8.79;77.96
80132;SHT30;69442;51.442;10.564;2023-12-28T12:45:35;8.81;79.33
80132;SHT30;69442;51.442;10.564;2023-12-28T12:48:02;8.77;76.48
80132;SHT30;69442;51.442;10.564;2023-12-28T12:50:28;8.75;76.49
80132;SHT30;69442;51.442;10.564;2023-12-28T12:52:54;8.75;77.07
80132;SHT30;69442;51.442;10.564;2023-12-28T12:55:19;8.72;76.52
80132;SHT30;69442;51.442;10.564;2023-12-28T12:57:45;8.72;77.84
80132;SHT30;69442;51.442;10.564;2023-12-28T13:00:10;8.72;77.46
80132;SHT30;69442;51.442;10.564;2023-12-28T13:02:36;8.71;79.15
80132;SHT30;69442;51.442;10.564;2023-12-28T13:05:03;8.72;78.23
80132;SHT30;69442;51.442;10.564;2023-12-28T13:07:30;8.71;78.39
80132;SHT30;69442;51.442;10.564;2023-12-28T13:09:55;8.71;79.84
80132;SHT30;69442;51.442;10.564;2023-12-28T13:12:23;8.70;80.28
80132;SHT30;69442;51.442;10.564;2023-12-28T13:14:50;8.70;79.81
80132;SHT30;69442;51.442;10.564;2023-12-28T13:17:15;8.68;78.11
80132;SHT30;69442;51.442;10.564;2023-12-28T13:19:41;8.63;77.64
80132;SHT30;69442;51.442;10.564;2023-12-28T13:22:07;8.63;77.77
80132;SHT30;69442;51.442;10.564;2023-12-28T13:24:32;8.63;77.16
80132;SHT30;69442;51.442;10.564;2023-12-28T13:26:58;8.64;78.66
80132;SHT30;69442;51.442;10.564;2023-12-28T13:29:23;8.63;78.10
80132;SHT30;69442;51.442;10.564;2023-12-28T13:31:48;8.57;77.40
80132;SHT30;69442;51.442;10.564;2023-12-28T13:34:17;8.60;77.69
80132;SHT30;69442;51.442;10.564;2023-12-28T13:36:44;8.61;80.73
80132;SHT30;69442;51.442;10.564;2023-12-28T13:39:10;8.60;79.46
80132;SHT30;69442;51.442;10.564;2023-12-28T13:41:39;8.59;79.99
80132;SHT30;69442;51.442;10.564;2023-12-28T13:44:04;8.59;78.21
80132;SHT30;69442;51.442;10.564;2023-12-28T13:46:35;8.56;78.30
80132;SHT30;69442;51.442;10.564;2023-12-28T13:49:00;8.56;78.11
80132;SHT30;69442;51.442;10.564;2023-12-28T13:51:27;8.54;78.57
80132;SHT30;69442;51.442;10.564;2023-12-28T13:53:52;8.54;78.34
80132;SHT30;69442;51.442;10.564;2023-12-28T13:56:18;8.53;77.56
80132;SHT30;69442;51.442;10.564;2023-12-28T13:58:43;8.50;76.78
80132;SHT30;69442;51.442;10.564;2023-12-28T14:01:09;8.53;77.66
80132;SHT30;69442;51.442;10.564;2023-12-28T14:03:35;8.49;77.43
80132;SHT30;69442;51.442;10.564;2023-12-28T14:06:00;8.50;77.26
80132;SHT30;69442;51.442;10.564;2023-12-28T14:08:25;8.49;77.41
80132;SHT30;69442;51.442;10.564;2023-12-28T14:10:51;8.50;79.28
80132;SHT30;69442;51.442;10.564;2023-12-28T14:13:16;8.49;79.45
80132;SHT30;69442;51.442;10.564;2023-12-28T14:15:41;8.47;77.34
80132;SHT30;69442;51.442;10.564;2023-12-28T14:18:07;8.46;78.08
80132;SHT30;69442;51.442;10.564;2023-12-28T14:20:34;8.47;78.60
80132;SHT30;69442;51.442;10.564;2023-12-28T14:23:00;8.44;77.83
80132;SHT30;69442;51.442;10.564;2023-12-28T14:25:26;8.43;77.00
80132;SHT30;69442;51.442;10.564;2023-12-28T14:27:52;8.43;79.72
80132;SHT30;69442;51.442;10.564;2023-12-28T14:30:18;8.44;80.71
80132;SHT30;69442;51.442;10.564;2023-12-28T14:32:45;8.40;77.78
80132;SHT30;69442;51.442;10.564;2023-12-28T14:35:11;8.42;78.99
80132;SHT30;69442;51.442;10.564;2023-12-28T14:37:36;8.39;77.60
80132;SHT30;69442;51.442;10.564;2023-12-28T14:40:03;8.42;80.48
80132;SHT30;69442;51.442;10.564;2023-12-28T14:42:34;8.37;77.79
80132;SHT30;69442;51.442;10.564;2023-12-28T14:45:00;8.30;77.01
80132;SHT30;69442;51.442;10.564;2023-12-28T14:47:27;8.30;76.71
80132;SHT30;69442;51.442;10.564;2023-12-28T14:49:52;8.32;79.59
80132;SHT30;69442;51.442;10.564;2023-12-28T14:52:20;8.29;77.34
80132;SHT30;69442;51.442;10.564;2023-12-28T14:54:46;8.28;77.77
80132;SHT30;69442;51.442;10.564;2023-12-28T14:57:11;8.25;77.67
80132;SHT30;69442;51.442;10.564;2023-12-28T14:59:37;8.22;78.24
80132;SHT30;69442;51.442;10.564;2023-12-28T15:02:04;8.22;79.38
80132;SHT30;69442;51.442;10.564;2023-12-28T15:04:29;8.19;77.14
80132;SHT30;69442;51.442;10.564;2023-12-28T15:06:55;8.16;77.78
80132;SHT30;69442;51.442;10.564;2023-12-28T15:09:21;8.16;77.94
80132;SHT30;69442;51.442;10.564;2023-12-28T15:11:46;8.15;78.31
80132;SHT30;69442;51.442;10.564;2023-12-28T15:14:12;8.12;77.80
80132;SHT30;69442;51.442;10.564;2023-12-28T15:16:38;8.12;77.96
80132;SHT30;69442;51.442;10.564;2023-12-28T15:19:05;8.06;77.58
80132;SHT30;69442;51.442;10.564;2023-12-28T15:21:30;8.08;77.45
80132;SHT30;69442;51.442;10.564;2023-12-28T15:23:56;8.02;77.85
80132;SHT30;69442;51.442;10.564;2023-12-28T15:26:21;8.01;77.79